sensor_id;sensor_type;location;lat;lon;timestamp;pressure;altitude;pressure_sealevel;temperature;humidity
35435;BME280;21556;55.782;37.528;2024-03-17T00:01:06;99956.88;;;5.61;100.00
35435;BME280;21556;55.782;37.528;2024-03-17T00:03:32;99958.56;;;5.81;100.00
35435;BME280;21556;55.782;37.528;2024-03-17T00:05:58;99956.47;;;5.51;100.00
35435;BME280;21556;55.782;37.528;2024-03-17T00:08:27;99954.34;;;5.41;100.00
35435;BME280;21556;55.782;37.528;2024-03-17T00:10:53;99951.00;;;5.66;100.00
35435;BME280;21556;55.782;37.528;2024-03-17T00:13:20;99953.91;;;5.30;100.00
35435;BME280;21556;55.782;37.528;2024-03-17T00:15:47;99946.78;;;5.47;100.00
35435;BME280;21556;55.782;37.528;2024-03-17T00:18:14;99953.53;;;5.42;100.00
35435;BME280;21556;55.782;37.528;2024-03-17T00:20:40;99943.72;;;5.58;100.00
35435;BME280;21556;55.782;37.528;2024-03-17T00:23:06;99944.88;;;5.64;100.00
35435;BME280;21556;55.782;37.528;2024-03-17T00:25:33;99941.97;;;5.57;100.00
35435;BME280;21556;55.782;37.528;2024-03-17T00:28:02;99940.38;;;5.39;100.00
35435;BME280;21556;55.782;37.528;2024-03-17T00:30:28;99936.50;;;5.29;100.00
35435;BME280;21556;55.782;37.528;2024-03-17T00:32:54;99944.81;;;5.21;100.00
35435;BME280;21556;55.782;37.528;2024-03-17T00:35:21;99940.13;;;5.33;100.00
35435;BME280;21556;55.782;37.528;2024-03-17T00:37:47;99941.25;;;5.19;100.00
35435;BME280;21556;55.782;37.528;2024-03-17T00:40:13;99935.31;;;5.42;100.00
35435;BME280;21556;55.782;37.528;2024-03-17T00:42:39;99943.22;;;5.03;100.00
35435;BME280;21556;55.782;37.528;2024-03-17T00:45:06;99934.22;;;5.37;100.00
35435;BME280;21556;55.782;37.528;2024-03-17T00:47:32;99939.31;;;5.13;100.00
35435;BME280;21556;55.782;37.528;2024-03-17T00:49:58;99937.72;;;5.17;100.00
35435;BME280;21556;55.782;37.528;2024-03-17T00:52:24;99934.47;;;5.22;100.00
35435;BME280;21556;55.782;37.528;2024-03-17T00:54:50;99934.28;;;5.18;100.00
35435;BME280;21556;55.782;37.528;2024-03-17T00:57:16;99935.81;;;5.13;100.00
35435;BME280;21556;55.782;37.528;2024-03-17T00:59:42;99930.53;;;5.11;100.00
35435;BME280;21556;55.782;37.528;2024-03-17T01:02:10;99933.47;;;4.78;100.00
35435;BME280;21556;55.782;37.528;2024-03-17T01:04:40;99928.72;;;5.09;100.00
35435;BME280;21556;55.782;37.528;2024-03-17T01:07:06;99920.22;;;5.13;100.00
35435;BME280;21556;55.782;37.528;2024-03-17T01:09:32;99923.53;;;5.09;100.00
35435;BME280;21556;55.782;37.528;2024-03-17T01:12:00;99916.16;;;4.98;100.00
35435;BME280;21556;55.782;37.528;2024-03-17T01:14:26;99918.25;;;5.07;100.00
35435;BME280;21556;55.782;37.528;2024-03-17T01:16:52;99921.41;;;5.21;100.00
35435;BME280;21556;55.782;37.528;2024-03-17T01:19:17;99914.59;;;5.23;100.00
35435;BME280;21556;55.782;37.528;2024-03-17T01:21:43;99916.47;;;5.27;100.00
35435;BME280;21556;55.782;37.528;2024-03-17T01:24:09;99914.31;;;5.17;100.00
35435;BME280;21556;55.782;37.528;2024-03-17T01:26:35;99910.88;;;5.18;100.00
35435;BME280;21556;55.782;37.528;2024-03-17T01:29:06;99917.66;;;4.93;100.00
35435;BME280;21556;55.782;37.528;2024-03-17T01:31:34;99917.66;;;4.93;100.00
35435;BME280;21556;55.782;37.528;2024-03-17T01:34:00;99913.47;;;4.76;100.00
35435;BME280;21556;55.782;37.528;2024-03-17T01:36:26;99911.19;;;4.83;100.00
35435;BME280;21556;55.782;37.528;2024-03-17T01:38:52;99908.03;;;4.91;100.00
35435;BME280;21556;55.782;37.528;2024-03-17T01:41:18;99903.75;;;4.93;100.00
35435;BME280;21556;55.782;37.528;2024-03-17T01:43:43;99913.56;;;4.58;100.00
35435;BME280;21556;55.782;37.528;2024-03-17T01:46:18;99898.66;;;4.94;100.00
35435;BME280;21556;55.782;37.528;2024-03-17T01:48:44;99908.00;;;5.12;100.00
35435;BME280;21556;55.782;37.528;2024-03-17T01:51:11;99908.50;;;5.01;100.00
35435;BME280;21556;55.782;37.528;2024-03-17T01:53:42;99900.28;;;4.92;100.00
35435;BME280;21556;55.782;37.528;2024-03-17T01:56:09;99896.84;;;4.93;100.00
35435;BME280;21556;55.782;37.528;2024-03-17T01:58:38;99903.28;;;5.01;100.00
35435;BME280;21556;55.782;37.528;2024-03-17T02:01:03;99894.44;;;5.19;100.00
35435;BME280;21556;55.782;37.528;2024-03-17T02:03:32;99896.28;;;4.79;100.00
35435;BME280;21556;55.782;37.528;2024-03-17T02:05:58;99895.22;;;4.95;100.00
35435;BME280;21556;55.782;37.528;2024-03-17T02:08:27;99890.41;;;4.64;100.00
35435;BME280;21556;55.782;37.528;2024-03-17T02:10:53;99888.56;;;5.02;100.00
35435;BME280;21556;55.782;37.528;2024-03-17T02:13:20;99888.13;;;5.12;100.00
35435;BME280;21556;55.782;37.528;2024-03-17T02:15:48;99890.03;;;4.95;100.00
35435;BME280;21556;55.782;37.528;2024-03-17T02:18:15;99888.13;;;4.91;100.00
35435;BME280;21556;55.782;37.528;2024-03-17T02:20:44;99890.75;;;4.72;100.00
35435;BME280;21556;55.782;37.528;2024-03-17T02:23:25;99885.81;;;4.78;100.00
35435;BME280;21556;55.782;37.528;2024-03-17T02:26:13;99892.69;;;4.76;100.00
35435;BME280;21556;55.782;37.528;2024-03-17T02:28:40;99882.28;;;4.76;100.00
35435;BME280;21556;55.782;37.528;2024-03-17T02:31:07;99878.16;;;5.02;100.00
35435;BME280;21556;55.782;37.528;2024-03-17T02:33:33;99868.00;;;5.08;100.00
35435;BME280;21556;55.782;37.528;2024-03-17T02:36:02;99869.13;;;5.15;100.00
35435;BME280;21556;55.782;37.528;2024-03-17T02:38:41;99865.91;;;5.20;100.00
35435;BME280;21556;55.782;37.528;2024-03-17T02:41:25;99861.78;;;5.25;100.00
35435;BME280;21556;55.782;37.528;2024-03-17T02:43:51;99864.78;;;5.14;100.00
35435;BME280;21556;55.782;37.528;2024-03-17T02:46:18;99861.34;;;4.73;100.00
35435;BME280;21556;55.782;37.528;2024-03-17T02:48:47;99868.59;;;4.61;100.00
35435;BME280;21556;55.782;37.528;2024-03-17T02:51:14;99866.50;;;4.52;100.00
35435;BME280;21556;55.782;37.528;2024-03-17T02:53:40;99865.19;;;4.82;100.00
35435;BME280;21556;55.782;37.528;2024-03-17T02:56:06;99863.84;;;4.91;100.00
35435;BME280;21556;55.782;37.528;2024-03-17T02:58:35;99856.22;;;4.95;100.00
35435;BME280;21556;55.782;37.528;2024-03-17T03:01:02;99856.75;;;4.67;100.00
35435;BME280;21556;55.782;37.528;2024-03-17T03:03:28;99852.56;;;4.90;100.00
35435;BME280;21556;55.782;37.528;2024-03-17T03:05:57;99861.59;;;5.00;100.00
35435;BME280;21556;55.782;37.528;2024-03-17T03:08:24;99857.41;;;4.82;100.00
35435;BME280;21556;55.782;37.528;2024-03-17T03:10:50;99860.47;;;4.53;100.00
35435;BME280;21556;55.782;37.528;2024-03-17T03:13:16;99855.59;;;4.80;100.00
35435;BME280;21556;55.782;37.528;2024-03-17T03:15:43;99851.28;;;4.61;100.00
35435;BME280;21556;55.782;37.528;2024-03-17T03:18:08;99854.03;;;4.24;100.00
35435;BME280;21556;55.782;37.528;2024-03-17T03:20:34;99858.44;;;4.65;100.00
35435;BME280;21556;55.782;37.528;2024-03-17T03:23:01;99844.28;;;4.58;100.00
35435;BME280;21556;55.782;37.528;2024-03-17T03:25:28;99848.66;;;4.59;100.00
35435;BME280;21556;55.782;37.528;2024-03-17T03:27:56;99850.84;;;4.91;100.00
35435;BME280;21556;55.782;37.528;2024-03-17T03:30:23;99846.84;;;4.38;100.00
35435;BME280;21556;55.782;37.528;2024-03-17T03:32:49;99847.81;;;4.40;100.00
35435;BME280;21556;55.782;37.528;2024-03-17T03:35:15;99836.50;;;4.58;100.00
35435;BME280;21556;55.782;37.528;2024-03-17T03:37:45;99839.47;;;4.08;100.00
35435;BME280;21556;55.782;37.528;2024-03-17T03:40:12;99837.97;;;4.13;100.00
35435;BME280;21556;55.782;37.528;2024-03-17T03:42:44;99839.66;;;4.51;100.00
35435;BME280;21556;55.782;37.528;2024-03-17T03:45:10;99833.91;;;4.39;100.00
35435;BME280;21556;55.782;37.528;2024-03-17T03:47:40;99835.59;;;4.58;100.00
35435;BME280;21556;55.782;37.528;2024-03-17T03:50:15;99837.31;;;4.78;100.00
35435;BME280;21556;55.782;37.528;2024-03-17T03:52:41;99835.81;;;4.83;100.00
35435;BME280;21556;55.782;37.528;2024-03-17T03:55:07;99838.88;;;4.75;100.00
35435;BME280;21556;55.782;37.528;2024-03-17T03:57:36;99838.72;;;4.70;100.00
35435;BME280;21556;55.782;37.528;2024-03-17T04:00:02;99838.72;;;4.70;100.00
35435;BME280;21556;55.782;37.528;2024-03-17T04:02:43;99830.97;;;4.72;100.00
35435;BME280;21556;55.782;37.528;2024-03-17T04:05:09;99825.72;;;4.91;100.00
35435;BME280;21556;55.782;37.528;2024-03-17T04:07:35;99830.28;;;4.55;100.00
35435;BME280;21556;55.782;37.528;2024-03-17T04:10:03;99823.53;;;4.60;100.00
35435;BME280;21556;55.782;37.528;2024-03-17T04:12:33;99836.91;;;4.48;100.00
35435;BME280;21556;55.782;37.528;2024-03-17T04:15:08;99829.63;;;4.61;100.00
35435;BME280;21556;55.782;37.528;2024-03-17T04:17:36;99834.72;;;4.38;100.00
35435;BME280;21556;55.782;37.528;2024-03-17T04:20:02;99838.03;;;4.34;100.00
35435;BME280;21556;55.782;37.528;2024-03-17T04:22:29;99825.03;;;4.34;100.00
35435;BME280;21556;55.782;37.528;2024-03-17T04:24:54;99825.50;;;4.45;100.00
35435;BME280;21556;55.782;37.528;2024-03-17T04:27:24;99825.56;;;4.46;100.00
35435;BME280;21556;55.782;37.528;2024-03-17T04:29:54;99820.34;;;4.46;100.00
35435;BME280;21556;55.782;37.528;2024-03-17T04:32:20;99824.28;;;4.37;100.00
35435;BME280;21556;55.782;37.528;2024-03-17T04:34:46;99814.16;;;4.64;100.00
35435;BME280;21556;55.782;37.528;2024-03-17T04:37:12;99813.56;;;4.50;100.00
35435;BME280;21556;55.782;37.528;2024-03-17T04:39:39;99816.06;;;4.47;100.00
35435;BME280;21556;55.782;37.528;2024-03-17T04:42:07;99826.66;;;4.51;100.00
35435;BME280;21556;55.782;37.528;2024-03-17T04:44:33;99821.81;;;4.40;100.00
35435;BME280;21556;55.782;37.528;2024-03-17T04:46:59;99816.81;;;4.44;100.00
35435;BME280;21556;55.782;37.528;2024-03-17T04:49:25;99817.69;;;4.45;100.00
35435;BME280;21556;55.782;37.528;2024-03-17T04:51:53;99816.41;;;4.14;100.00
35435;BME280;21556;55.782;37.528;2024-03-17T04:54:20;99822.03;;;4.44;100.00
35435;BME280;21556;55.782;37.528;2024-03-17T04:56:46;99819.38;;;4.64;100.00
35435;BME280;21556;55.782;37.528;2024-03-17T04:59:12;99809.16;;;4.68;100.00
35435;BME280;21556;55.782;37.528;2024-03-17T05:01:38;99808.72;;;4.78;100.00
35435;BME280;21556;55.782;37.528;2024-03-17T05:04:04;99815.69;;;5.00;100.00
35435;BME280;21556;55.782;37.528;2024-03-17T05:06:30;99816.16;;;4.69;100.00
35435;BME280;21556;55.782;37.528;2024-03-17T05:08:56;99812.81;;;5.15;100.00
35435;BME280;21556;55.782;37.528;2024-03-17T05:11:21;99818.09;;;5.17;100.00
35435;BME280;21556;55.782;37.528;2024-03-17T05:13:49;99815.31;;;4.91;100.00
35435;BME280;21556;55.782;37.528;2024-03-17T05:16:15;99817.25;;;5.18;100.00
35435;BME280;21556;55.782;37.528;2024-03-17T05:18:41;99819.50;;;5.09;100.00
35435;BME280;21556;55.782;37.528;2024-03-17T05:21:08;99818.41;;;4.82;100.00
35435;BME280;21556;55.782;37.528;2024-03-17T05:23:35;99817.75;;;4.87;100.00
35435;BME280;21556;55.782;37.528;2024-03-17T05:26:01;99824.88;;;4.92;100.00
35435;BME280;21556;55.782;37.528;2024-03-17T05:28:27;99824.88;;;5.13;100.00
35435;BME280;21556;55.782;37.528;2024-03-17T05:30:53;99830.13;;;5.15;100.00
35435;BME280;21556;55.782;37.528;2024-03-17T05:33:20;99821.94;;;5.49;100.00
35435;BME280;21556;55.782;37.528;2024-03-17T05:35:50;99826.03;;;5.42;100.00
35435;BME280;21556;55.782;37.528;2024-03-17T05:38:21;99823.38;;;5.63;100.00
35435;BME280;21556;55.782;37.528;2024-03-17T05:40:57;99824.13;;;5.61;100.00
35435;BME280;21556;55.782;37.528;2024-03-17T05:43:23;99820.00;;;6.12;100.00
35435;BME280;21556;55.782;37.528;2024-03-17T05:45:52;99820.56;;;6.03;100.00
35435;BME280;21556;55.782;37.528;2024-03-17T05:48:18;99821.78;;;5.91;100.00
35435;BME280;21556;55.782;37.528;2024-03-17T05:50:44;99828.75;;;6.38;100.00
35435;BME280;21556;55.782;37.528;2024-03-17T05:53:09;99815.94;;;6.44;100.00
35435;BME280;21556;55.782;37.528;2024-03-17T05:55:36;99824.97;;;7.07;100.00
35435;BME280;21556;55.782;37.528;2024-03-17T05:58:02;99823.66;;;7.19;100.00
35435;BME280;21556;55.782;37.528;2024-03-17T06:00:28;99819.13;;;7.41;100.00
35435;BME280;21556;55.782;37.528;2024-03-17T06:02:55;99817.66;;;7.51;100.00
35435;BME280;21556;55.782;37.528;2024-03-17T06:05:32;99819.59;;;7.29;100.00
35435;BME280;21556;55.782;37.528;2024-03-17T06:08:00;99820.75;;;7.37;100.00
35435;BME280;21556;55.782;37.528;2024-03-17T06:10:25;99822.41;;;6.81;100.00
35435;BME280;21556;55.782;37.528;2024-03-17T06:12:52;99817.97;;;7.33;100.00
35435;BME280;21556;55.782;37.528;2024-03-17T06:15:18;99819.75;;;7.07;100.00
35435;BME280;21556;55.782;37.528;2024-03-17T06:17:46;99815.28;;;7.03;100.00
35435;BME280;21556;55.782;37.528;2024-03-17T06:20:11;99816.78;;;6.96;100.00
35435;BME280;21556;55.782;37.528;2024-03-17T06:22:39;99815.63;;;7.13;100.00
35435;BME280;21556;55.782;37.528;2024-03-17T06:25:23;99810.25;;;7.36;100.00
35435;BME280;21556;55.782;37.528;2024-03-17T06:28:00;99805.63;;;7.27;100.00
35435;BME280;21556;55.782;37.528;2024-03-17T06:30:31;99809.47;;;7.11;100.00
35435;BME280;21556;55.782;37.528;2024-03-17T06:32:58;99804.34;;;7.70;100.00
35435;BME280;21556;55.782;37.528;2024-03-17T06:35:23;99804.34;;;7.41;100.00
35435;BME280;21556;55.782;37.528;2024-03-17T06:37:52;99805.03;;;6.82;100.00
35435;BME280;21556;55.782;37.528;2024-03-17T06:40:18;99800.50;;;7.30;100.00
35435;BME280;21556;55.782;37.528;2024-03-17T06:42:44;99792.78;;;8.55;100.00
35435;BME280;21556;55.782;37.528;2024-03-17T06:45:10;99795.75;;;7.74;100.00
35435;BME280;21556;55.782;37.528;2024-03-17T06:47:36;99799.19;;;7.73;100.00
35435;BME280;21556;55.782;37.528;2024-03-17T06:50:02;99798.06;;;7.65;100.00
35435;BME280;21556;55.782;37.528;2024-03-17T06:52:29;99793.69;;;7.64;100.00
35435;BME280;21556;55.782;37.528;2024-03-17T06:54:55;99804.72;;;7.55;100.00
35435;BME280;21556;55.782;37.528;2024-03-17T06:57:20;99790.25;;;8.27;100.00
35435;BME280;21556;55.782;37.528;2024-03-17T06:59:46;99787.81;;;8.01;100.00
35435;BME280;21556;55.782;37.528;2024-03-17T07:02:13;99792.75;;;8.54;100.00
35435;BME280;21556;55.782;37.528;2024-03-17T07:04:43;99791.34;;;8.03;100.00
35435;BME280;21556;55.782;37.528;2024-03-17T07:07:18;99792.13;;;7.99;100.00
35435;BME280;21556;55.782;37.528;2024-03-17T07:09:43;99788.06;;;8.10;100.00
35435;BME280;21556;55.782;37.528;2024-03-17T07:12:09;99783.88;;;7.85;100.00
35435;BME280;21556;55.782;37.528;2024-03-17T07:14:36;99783.28;;;7.65;100.00
35435;BME280;21556;55.782;37.528;2024-03-17T07:17:02;99783.13;;;7.59;100.00
35435;BME280;21556;55.782;37.528;2024-03-17T07:19:27;99785.47;;;8.10;100.00
35435;BME280;21556;55.782;37.528;2024-03-17T07:21:54;99777.34;;;8.33;100.00
35435;BME280;21556;55.782;37.528;2024-03-17T07:24:20;99781.31;;;8.18;100.00
35435;BME280;21556;55.782;37.528;2024-03-17T07:26:47;99786.13;;;8.03;100.00
35435;BME280;21556;55.782;37.528;2024-03-17T07:29:14;99778.66;;;7.85;100.00
35435;BME280;21556;55.782;37.528;2024-03-17T07:31:39;99776.53;;;8.67;100.00
35435;BME280;21556;55.782;37.528;2024-03-17T07:34:05;99777.34;;;8.33;100.00
35435;BME280;21556;55.782;37.528;2024-03-17T07:36:30;99775.16;;;8.48;100.00
35435;BME280;21556;55.782;37.528;2024-03-17T07:39:15;99769.94;;;8.16;100.00
35435;BME280;21556;55.782;37.528;2024-03-17T07:41:41;99772.56;;;8.48;100.00
35435;BME280;21556;55.782;37.528;2024-03-17T07:44:08;99764.09;;;8.58;100.00
35435;BME280;21556;55.782;37.528;2024-03-17T07:46:34;99765.47;;;8.42;100.00
35435;BME280;21556;55.782;37.528;2024-03-17T07:49:00;99769.72;;;8.39;100.00
35435;BME280;21556;55.782;37.528;2024-03-17T07:51:25;99768.66;;;8.02;100.00
35435;BME280;21556;55.782;37.528;2024-03-17T07:53:54;99769.03;;;8.16;100.00
35435;BME280;21556;55.782;37.528;2024-03-17T07:56:19;99765.41;;;7.79;100.00
35435;BME280;21556;55.782;37.528;2024-03-17T07:58:45;99771.38;;;7.74;100.00
35435;BME280;21556;55.782;37.528;2024-03-17T08:01:16;99759.34;;;8.12;100.00
35435;BME280;21556;55.782;37.528;2024-03-17T08:03:43;99765.94;;;7.97;100.00
35435;BME280;21556;55.782;37.528;2024-03-17T08:06:13;99768.91;;;8.10;100.00
35435;BME280;21556;55.782;37.528;2024-03-17T08:08:39;99764.84;;;8.21;100.00
35435;BME280;21556;55.782;37.528;2024-03-17T08:11:05;99765.94;;;8.29;100.00
35435;BME280;21556;55.782;37.528;2024-03-17T08:13:31;99768.38;;;7.61;100.00
35435;BME280;21556;55.782;37.528;2024-03-17T08:16:00;99765.34;;;8.08;100.00
35435;BME280;21556;55.782;37.528;2024-03-17T08:18:26;99761.78;;;8.06;100.00
35435;BME280;21556;55.782;37.528;2024-03-17T08:20:56;99756.47;;;8.34;100.00
35435;BME280;21556;55.782;37.528;2024-03-17T08:23:22;99747.91;;;8.07;100.00
35435;BME280;21556;55.782;37.528;2024-03-17T08:25:52;99754.75;;;7.41;100.00
35435;BME280;21556;55.782;37.528;2024-03-17T08:28:19;99764.66;;;8.15;100.00
35435;BME280;21556;55.782;37.528;2024-03-17T08:30:59;99757.81;;;8.20;100.00
35435;BME280;21556;55.782;37.528;2024-03-17T08:33:25;99755.53;;;7.99;100.00
35435;BME280;21556;55.782;37.528;2024-03-17T08:35:59;99757.78;;;8.17;100.00
35435;BME280;21556;55.782;37.528;2024-03-17T08:38:25;99760.69;;;8.29;100.00
35435;BME280;21556;55.782;37.528;2024-03-17T08:40:53;99746.38;;;8.15;100.00
35435;BME280;21556;55.782;37.528;2024-03-17T08:43:19;99746.47;;;8.18;100.00
35435;BME280;21556;55.782;37.528;2024-03-17T08:45:53;99750.38;;;8.02;100.00
35435;BME280;21556;55.782;37.528;2024-03-17T08:48:20;99743.69;;;8.12;100.00
35435;BME280;21556;55.782;37.528;2024-03-17T08:50:52;99754.63;;;8.30;100.00
35435;BME280;21556;55.782;37.528;2024-03-17T08:53:21;99746.34;;;8.13;100.00
35435;BME280;21556;55.782;37.528;2024-03-17T08:55:52;99758.06;;;7.96;100.00
35435;BME280;21556;55.782;37.528;2024-03-17T08:58:18;99752.66;;;7.90;100.00
35435;BME280;21556;55.782;37.528;2024-03-17T09:00:44;99757.13;;;7.64;100.00
35435;BME280;21556;55.782;37.528;2024-03-17T09:03:11;99752.19;;;8.05;100.00
35435;BME280;21556;55.782;37.528;2024-03-17T09:05:41;99751.72;;;8.19;100.00
35435;BME280;21556;55.782;37.528;2024-03-17T09:08:07;99747.19;;;7.81;100.00
35435;BME280;21556;55.782;37.528;2024-03-17T09:10:42;99751.13;;;8.30;100.00
35435;BME280;21556;55.782;37.528;2024-03-17T09:13:29;99754.44;;;8.24;100.00
35435;BME280;21556;55.782;37.528;2024-03-17T09:15:55;99763.06;;;7.30;100.00
35435;BME280;21556;55.782;37.528;2024-03-17T09:18:29;99752.97;;;8.01;100.00
35435;BME280;21556;55.782;37.528;2024-03-17T09:21:02;99749.09;;;8.50;100.00
35435;BME280;21556;55.782;37.528;2024-03-17T09:23:29;99749.31;;;8.27;100.00
35435;BME280;21556;55.782;37.528;2024-03-17T09:25:58;99743.03;;;8.20;100.00
35435;BME280;21556;55.782;37.528;2024-03-17T09:28:24;99744.56;;;8.12;100.00
35435;BME280;21556;55.782;37.528;2024-03-17T09:30:51;99746.41;;;8.48;100.00
35435;BME280;21556;55.782;37.528;2024-03-17T09:36:11;99742.78;;;8.11;100.00
35435;BME280;21556;55.782;37.528;2024-03-17T09:38:38;99747.88;;;8.38;100.00
35435;BME280;21556;55.782;37.528;2024-03-17T09:43:54;99745.34;;;8.40;100.00
35435;BME280;21556;55.782;37.528;2024-03-17T09:46:27;99745.56;;;8.84;100.00
35435;BME280;21556;55.782;37.528;2024-03-17T09:48:54;99755.38;;;8.26;100.00
35435;BME280;21556;55.782;37.528;2024-03-17T09:51:21;99749.13;;;8.87;100.00
35435;BME280;21556;55.782;37.528;2024-03-17T09:53:47;99751.81;;;8.23;100.00
35435;BME280;21556;55.782;37.528;2024-03-17T09:56:17;99750.25;;;8.29;100.00
35435;BME280;21556;55.782;37.528;2024-03-17T09:58:44;99739.72;;;8.26;100.00
35435;BME280;21556;55.782;37.528;2024-03-17T10:01:10;99735.44;;;8.61;100.00
35435;BME280;21556;55.782;37.528;2024-03-17T10:06:07;99733.94;;;8.73;100.00
35435;BME280;21556;55.782;37.528;2024-03-17T10:08:32;99728.28;;;8.90;100.00
35435;BME280;21556;55.782;37.528;2024-03-17T10:11:09;99725.53;;;8.86;100.00
35435;BME280;21556;55.782;37.528;2024-03-17T10:13:39;99721.84;;;9.14;100.00
35435;BME280;21556;55.782;37.528;2024-03-17T10:16:04;99729.41;;;9.02;100.00
35435;BME280;21556;55.782;37.528;2024-03-17T10:18:30;99725.84;;;8.98;100.00
35435;BME280;21556;55.782;37.528;2024-03-17T10:20:56;99727.66;;;9.01;100.00
35435;BME280;21556;55.782;37.528;2024-03-17T10:23:24;99724.88;;;8.95;100.00
35435;BME280;21556;55.782;37.528;2024-03-17T10:25:50;99733.34;;;8.48;100.00
35435;BME280;21556;55.782;37.528;2024-03-17T10:28:16;99715.31;;;8.59;100.00
35435;BME280;21556;55.782;37.528;2024-03-17T10:30:42;99721.16;;;8.85;100.00
35435;BME280;21556;55.782;37.528;2024-03-17T10:33:22;99714.50;;;8.99;100.00
35435;BME280;21556;55.782;37.528;2024-03-17T10:35:50;99718.44;;;8.80;100.00
35435;BME280;21556;55.782;37.528;2024-03-17T10:38:32;99723.03;;;8.90;100.00
35435;BME280;21556;55.782;37.528;2024-03-17T10:41:00;99710.25;;;8.66;100.00
35435;BME280;21556;55.782;37.528;2024-03-17T10:43:26;99713.53;;;8.94;100.00
35435;BME280;21556;55.782;37.528;2024-03-17T10:45:52;99708.25;;;8.23;100.00
35435;BME280;21556;55.782;37.528;2024-03-17T10:48:22;99701.50;;;9.01;100.00
35435;BME280;21556;55.782;37.528;2024-03-17T10:50:52;99703.53;;;8.78;100.00
35435;BME280;21556;55.782;37.528;2024-03-17T10:53:21;99701.34;;;8.96;100.00
35435;BME280;21556;55.782;37.528;2024-03-17T10:56:08;99701.75;;;8.75;100.00
35435;BME280;21556;55.782;37.528;2024-03-17T10:58:38;99709.78;;;8.47;100.00
35435;BME280;21556;55.782;37.528;2024-03-17T11:01:06;99719.88;;;8.34;100.00
35435;BME280;21556;55.782;37.528;2024-03-17T11:03:37;99705.53;;;8.52;100.00
35435;BME280;21556;55.782;37.528;2024-03-17T11:06:03;99702.72;;;8.42;100.00
35435;BME280;21556;55.782;37.528;2024-03-17T11:08:31;99703.97;;;8.58;100.00
35435;BME280;21556;55.782;37.528;2024-03-17T11:10:58;99700.53;;;8.61;100.00
35435;BME280;21556;55.782;37.528;2024-03-17T11:13:25;99691.84;;;8.62;100.00
35435;BME280;21556;55.782;37.528;2024-03-17T11:15:52;99697.22;;;8.68;100.00
35435;BME280;21556;55.782;37.528;2024-03-17T11:20:58;99695.88;;;8.85;100.00
35435;BME280;21556;55.782;37.528;2024-03-17T11:23:29;99698.25;;;8.75;100.00
35435;BME280;21556;55.782;37.528;2024-03-17T11:25:56;99703.16;;;8.61;100.00
35435;BME280;21556;55.782;37.528;2024-03-17T11:37:02;99700.13;;;8.44;100.00
35435;BME280;21556;55.782;37.528;2024-03-17T11:39:46;99702.72;;;8.42;100.00
35435;BME280;21556;55.782;37.528;2024-03-17T11:42:14;99691.75;;;8.59;100.00
35435;BME280;21556;55.782;37.528;2024-03-17T11:44:42;99692.97;;;8.73;100.00
35435;BME280;21556;55.782;37.528;2024-03-17T11:47:08;99679.09;;;8.76;100.00
35435;BME280;21556;55.782;37.528;2024-03-17T11:49:36;99692.31;;;8.46;100.00
35435;BME280;21556;55.782;37.528;2024-03-17T11:52:11;99685.41;;;8.16;100.00
35435;BME280;21556;55.782;37.528;2024-03-17T11:54:39;99688.00;;;8.48;100.00
35435;BME280;21556;55.782;37.528;2024-03-17T11:57:13;99691.34;;;8.42;100.00
35435;BME280;21556;55.782;37.528;2024-03-17T11:59:44;99685.06;;;8.35;100.00
35435;BME280;21556;55.782;37.528;2024-03-17T12:02:19;99679.31;;;8.49;100.00
35435;BME280;21556;55.782;37.528;2024-03-17T12:04:46;99682.09;;;8.56;100.00
35435;BME280;21556;55.782;37.528;2024-03-17T12:07:12;99685.69;;;8.60;100.00
35435;BME280;21556;55.782;37.528;2024-03-17T12:09:40;99685.56;;;8.54;100.00
35435;BME280;21556;55.782;37.528;2024-03-17T12:12:08;99689.84;;;8.52;100.00
35435;BME280;21556;55.782;37.528;2024-03-17T12:14:38;99687.84;;;8.41;100.00
35435;BME280;21556;55.782;37.528;2024-03-17T12:17:05;99684.72;;;7.88;100.00
35435;BME280;21556;55.782;37.528;2024-03-17T12:19:32;99688.38;;;8.28;100.00
35435;BME280;21556;55.782;37.528;2024-03-17T12:22:01;99682.63;;;8.41;100.00
35435;BME280;21556;55.782;37.528;2024-03-17T12:24:31;99690.78;;;8.54;100.00
35435;BME280;21556;55.782;37.528;2024-03-17T12:27:01;99677.09;;;8.31;100.00
35435;BME280;21556;55.782;37.528;2024-03-17T12:32:04;99682.97;;;8.22;100.00
35435;BME280;21556;55.782;37.528;2024-03-17T12:34:33;99681.84;;;8.12;100.00
35435;BME280;21556;55.782;37.528;2024-03-17T12:37:02;99675.84;;;7.83;100.00
35435;BME280;21556;55.782;37.528;2024-03-17T12:39:29;99682.25;;;7.94;100.00
35435;BME280;21556;55.782;37.528;2024-03-17T12:44:29;99683.09;;;7.93;100.00
35435;BME280;21556;55.782;37.528;2024-03-17T12:46:58;99680.97;;;8.12;100.00
35435;BME280;21556;55.782;37.528;2024-03-17T12:49:28;99670.16;;;7.98;100.00
35435;BME280;21556;55.782;37.528;2024-03-17T12:51:54;99674.94;;;7.81;100.00
35435;BME280;21556;55.782;37.528;2024-03-17T12:54:24;99667.03;;;8.13;100.00
35435;BME280;21556;55.782;37.528;2024-03-17T13:03:02;99667.63;;;8.01;100.00
35435;BME280;21556;55.782;37.528;2024-03-17T13:05:29;99656.59;;;8.13;100.00
35435;BME280;21556;55.782;37.528;2024-03-17T13:07:56;99663.06;;;7.94;100.00
35435;BME280;21556;55.782;37.528;2024-03-17T13:10:32;99658.94;;;8.02;100.00
35435;BME280;21556;55.782;37.528;2024-03-17T13:13:02;99659.88;;;8.06;100.00
35435;BME280;21556;55.782;37.528;2024-03-17T13:15:32;99654.91;;;8.13;100.00
35435;BME280;21556;55.782;37.528;2024-03-17T13:18:01;99666.91;;;8.07;100.00
35435;BME280;21556;55.782;37.528;2024-03-17T13:20:27;99659.09;;;8.08;100.00
35435;BME280;21556;55.782;37.528;2024-03-17T13:22:53;99653.69;;;8.01;100.00
35435;BME280;21556;55.782;37.528;2024-03-17T13:25:22;99653.50;;;7.94;100.00